Latest Weather Observations for Amberley

IDQ60901

Issued at 8:11 am EST Thursday 8 December 2016 (issued every 10 minutes, with the page automatically refreshed every 10 minutes)

About weather observations | Map of Brisbane area stations | Latest observations for Brisbane area | Other Formats
Station Details ID: 040004 Name: AMBERLEY AMO Lat: -27.63 Lon: 152.71 Height: 24.2 m
Data from the previous 72 hours. | See also: Recent months at Amberley
Date/Time
EST
Temp
°C
App
Temp
°C
Dew
Point
°C
Rel
Hum
%
Delta-T
°C
Wind Press
QNH
hPa
Press
MSL
hPa
Rain since
9am
mm
Dir  Spd
km/h
Gust
km/h
Spd
kts
Gust
kts
08/08:00am 23.8 26.8 20.9 84 1.9 SE 6 9 3 5 1012.3 1012.2 0.2
08/07:30am 23.8 26.7 21.1 85 1.8 SE 7 9 4 5 1012.5 1012.4 0.2
08/07:00am 23.7 26.1 20.8 84 1.9 E 9 15 5 8 1012.2 1012.1 0.2
08/06:30am 23.4 26.1 20.6 84 1.8 NE 7 9 4 5 1012.3 1012.2 0.2
08/06:00am 23.4 27.7 21.1 87 1.5 CALM 0 0 0 0 1012.0 1011.9 0.2
08/05:30am 23.3 27.5 21.0 87 1.5 CALM 0 0 0 0 1012.2 1012.1 0.2
08/05:00am 23.1 27.3 21.0 88 1.4 CALM 0 0 0 0 1012.0 1011.9 0.2
08/04:30am 23.1 27.3 21.0 88 1.4 CALM 0 0 0 0 1011.8 1011.7 0.2
08/04:00am 22.9 27.2 21.2 90 1.1 CALM 0 2 0 1 1011.8 1011.7 0.2
08/03:30am 22.9 26.1 21.2 90 1.1 SSW 6 7 3 4 1011.9 1011.8 0.2
08/03:00am 22.9 27.3 21.4 91 1.0 CALM 0 0 0 0 1012.0 1011.9 0.2
08/02:30am 22.8 25.9 21.4 92 0.9 SSE 7 9 4 5 1012.1 1012.0 0.2
08/02:00am 22.9 27.2 21.1 89 1.2 CALM 0 0 0 0 1012.2 1012.1 0.2
08/01:46am 23.0 27.3 21.2 89 1.2 CALM 0 0 0 0 1012.3 1012.2 0.2
08/01:30am 23.0 27.2 21.0 88 1.3 CALM 0 0 0 0 1012.3 1012.2 0.2
08/01:24am 23.0 27.2 21.0 88 1.3 CALM 0 0 0 0 1012.5 1012.4 0.2
08/01:00am 23.1 27.3 21.0 88 1.4 CALM 0 0 0 0 1013.1 1013.0 0.2
08/12:30am 22.9 27.2 21.1 89 1.2 CALM 0 0 0 0 1013.2 1013.1 0.2
08/12:06am 22.8 25.8 20.8 88 1.3 SE 6 9 3 5 1013.4 1013.3 0.2
08/12:00am 22.9 27.0 20.8 88 1.4 CALM 0 6 0 3 1013.4 1013.3 0.2
 
Date/Time
EST
Temp
°C
App
Temp
°C
Dew
Point
°C
Rel
Hum
%
Delta-T
°C
Wind Press
QNH
hPa
Press
MSL
hPa
Rain since
9am
mm
Dir  Spd
km/h
Gust
km/h
Spd
kts
Gust
kts
07/11:30pm 23.0 25.7 20.7 87 1.5 ESE 7 9 4 5 1013.7 1013.6 0.2
07/11:00pm 23.2 26.4 20.6 85 1.7 SE 4 7 2 4 1014.2 1014.1 0.2
07/10:30pm 23.5 25.0 20.6 84 1.9 ESE 13 17 7 9 1014.7 1014.6 0.2
07/10:00pm 23.6 25.0 20.4 82 2.1 ESE 13 17 7 9 1014.3 1014.2 0.2
07/09:30pm 24.1 24.5 19.8 77 2.8 SE 17 22 9 12 1014.2 1014.1 0.2
07/09:00pm 24.4 24.7 20.4 78 2.6 ESE 19 26 10 14 1014.0 1013.9 0.2
07/08:53pm 24.5 24.8 20.7 79 2.5 ESE 20 28 11 15 1014.2 1014.1 0.2
07/08:39pm 24.6 25.8 20.6 78 2.6 ESE 15 19 8 10 1014.1 1014.0 0.2
07/08:30pm 24.7 25.2 21.1 80 2.4 ESE 20 30 11 16 1013.9 1013.8 0.2
07/08:00pm 25.0 25.5 20.9 78 2.7 E 19 28 10 15 1013.8 1013.7 0.2
07/07:30pm 25.8 26.5 21.6 77 2.8 E 20 32 11 17 1013.4 1013.3 0.2
07/07:00pm 25.9 25.4 21.4 76 3.0 ENE 26 35 14 19 1012.9 1012.8 0.2
07/06:30pm 26.1 24.9 20.9 73 3.4 ENE 28 37 15 20 1012.2 1012.1 0.2
07/06:00pm 26.7 26.1 20.6 69 4.0 ENE 24 33 13 18 1011.8 1011.7 0.2
07/05:30pm 27.1 26.2 20.6 67 4.3 ENE 26 33 14 18 1011.1 1011.0 0.2
07/05:00pm 28.1 27.7 21.7 68 4.3 ENE 26 33 14 18 1010.3 1010.2 0.2
07/04:45pm 28.7 27.6 21.7 66 4.7 ENE 30 37 16 20 1009.9 1009.8 0.2
07/04:30pm 29.3 29.3 21.6 63 5.2 ENE 24 35 13 19 1009.6 1009.5 0.2
07/04:00pm 30.7 32.3 21.5 58 6.2 SE 15 19 8 10 1009.2 1009.1 0.2
07/03:30pm 31.0 33.5 23.2 63 5.4 SE 15 19 8 10 1008.7 1008.6 0.2
07/03:14pm 31.8 34.7 21.8 55 6.8 ESE 9 13 5 7 1008.9 1008.8 0.2
07/03:00pm 32.0 34.1 21.0 52 7.4 ESE 11 15 6 8 1009.2 1009.1 0.2
07/02:30pm 32.7 35.4 21.3 51 7.7 ESE 9 15 5 8 1009.6 1009.5 0.2
07/02:00pm 32.5 35.7 21.2 51 7.6 SSW 6 13 3 7 1009.9 1009.8 0.2
07/01:30pm 32.3 35.3 20.8 50 7.7 NE 6 11 3 6 1009.7 1009.6 0.2
07/01:00pm 31.6 34.0 20.8 52 7.2 NNW 9 15 5 8 1009.9 1009.8 0.2
07/12:30pm 31.2 33.9 20.7 53 7.0 NW 7 13 4 7 1010.1 1010.0 0.2
07/12:00pm 31.1 33.6 21.8 57 6.3 N 11 17 6 9 1010.7 1010.6 0.2
07/11:30am 30.0 32.3 21.4 60 5.8 N 11 15 6 8 1011.2 1011.1 0.0
07/11:00am 29.1 30.9 21.2 62 5.3 NNW 13 20 7 11 1011.4 1011.3 0.0
07/10:30am 28.2 31.4 21.3 66 4.6 W 6 11 3 6 1012.4 1012.3 0.0
07/10:00am 27.8 31.0 21.2 67 4.4 WSW 6 9 3 5 1012.7 1012.6 0.0
07/09:30am 27.4 30.8 21.6 70 3.9 WSW 6 11 3 6 1012.9 1012.8 0.0
07/09:21am 27.1 29.6 21.7 72 3.6 W 11 15 6 8 1013.1 1013.0 0.0
07/09:00am 26.5 30.0 21.9 76 3.1 WNW 6 13 3 7 1013.1 1013.0 17.6
07/08:30am 25.8 28.9 22.2 80 2.4 NE 9 11 5 6 1013.2 1013.1 17.6
07/08:00am 24.9 27.8 22.5 86 1.6 NE 11 15 6 8 1013.4 1013.3 17.6
07/07:30am 23.6 24.7 21.9 90 1.1 NE 19 24 10 13 1013.0 1012.9 17.6
07/07:00am 23.5 26.1 22.6 95 0.6 NNE 13 19 7 10 1013.7 1013.6 17.6
07/06:30am 23.3 27.0 22.6 96 0.5 NNE 7 11 4 6 1013.6 1013.5 17.6
07/06:08am 23.3 26.3 22.7 96 0.4 NE 11 15 6 8 1013.5 1013.4 16.0
07/06:00am 23.3 26.7 22.7 96 0.4 ENE 9 11 5 6 1013.5 1013.4 15.8
07/05:30am 23.2 27.8 22.5 96 0.5 SSE 2 7 1 4 1013.3 1013.2 15.8
07/05:00am 23.2 26.9 22.6 96 0.4 S 7 9 4 5 1012.8 1012.7 15.8
07/04:30am 23.3 26.5 22.4 95 0.6 NW 9 9 5 5 1012.9 1012.8 15.8
07/04:00am 23.0 26.6 22.4 96 0.4 N 7 9 4 5 1012.1 1012.0 15.8
07/03:30am 23.0 27.9 22.3 96 0.5 CALM 0 0 0 0 1011.6 1011.5 15.8
07/03:00am 23.1 26.0 22.4 96 0.5 SW 11 13 6 7 1011.5 1011.4 15.8
07/02:30am 23.1 27.7 22.4 96 0.5 W 2 9 1 5 1011.2 1011.1 15.8
07/02:07am 23.0 26.2 22.3 96 0.5 SE 9 17 5 9 1011.1 1011.0 15.6
07/02:00am 23.0 25.1 22.4 96 0.4 SSE 15 19 8 10 1011.2 1011.1 15.4
07/01:40am 23.2 25.0 22.6 96 0.4 SSW 17 19 9 10 1011.3 1011.2 13.8
07/01:30am 23.5 25.3 22.5 94 0.7 W 17 22 9 12 1011.7 1011.6 12.6
07/01:28am 23.5 25.3 22.5 94 0.7 WNW 17 22 9 12 1011.6 1011.5 12.4
07/01:08am 24.3 24.6 20.8 81 2.3 W 20 43 11 23 1010.8 1010.7 11.0
07/01:00am 23.5 25.9 22.3 93 0.8 NW 13 20 7 11 1010.9 1010.8 5.6
07/12:55am 24.4 27.7 21.8 85 1.7 NW 7 17 4 9 1010.9 1010.8 1.8
07/12:42am 25.0 27.6 21.2 79 2.5 ESE 9 11 5 6 1010.2 1010.1 0.0
07/12:30am 24.9 27.6 21.3 80 2.4 SE 9 13 5 7 1010.4 1010.3 0.0
07/12:16am 25.1 28.3 21.3 79 2.5 E 6 9 3 5 1010.7 1010.6 0.0
07/12:00am 25.1 27.7 21.2 79 2.6 ENE 9 15 5 8 1010.8 1010.7 0.0
 
Date/Time
EST
Temp
°C
App
Temp
°C
Dew
Point
°C
Rel
Hum
%
Delta-T
°C
Wind Press
QNH
hPa
Press
MSL
hPa
Rain since
9am
mm
Dir  Spd
km/h
Gust
km/h
Spd
kts
Gust
kts
06/11:30pm 25.3 26.7 21.1 77 2.8 E 15 19 8 10 1011.2 1011.1 0.0
06/11:00pm 25.4 26.2 21.3 78 2.7 ESE 19 28 10 15 1011.6 1011.5 0.0
06/10:30pm 25.7 26.5 21.3 76 2.9 SE 19 28 10 15 1011.4 1011.3 0.0
06/10:00pm 26.1 26.2 21.1 74 3.3 SSE 22 30 12 16 1011.3 1011.2 0.0
06/09:30pm 26.2 27.2 21.1 73 3.4 E 17 26 9 14 1010.7 1010.6 0.0
06/09:00pm 26.2 26.3 21.2 74 3.3 E 22 32 12 17 1009.7 1009.6 0.0
06/08:30pm 26.4 26.6 21.3 73 3.4 E 22 30 12 16 1009.9 1009.8 0.0
06/08:00pm 26.5 26.7 21.4 73 3.4 E 22 32 12 17 1009.7 1009.6 0.0
06/07:30pm 27.0 27.2 21.3 71 3.8 E 22 32 12 17 1009.6 1009.5 0.0
06/07:00pm 27.7 28.3 21.4 68 4.2 E 20 30 11 16 1009.1 1009.0 0.0
06/06:30pm 28.8 28.6 21.3 64 5.0 ENE 24 32 13 17 1008.5 1008.4 0.0
06/06:00pm 30.7 30.7 21.0 56 6.5 ENE 22 32 12 17 1008.0 1007.9 0.0
06/05:30pm 33.0 32.4 20.4 47 8.4 ENE 24 32 13 17 1007.7 1007.6 0.0
06/05:00pm 36.2 36.8 16.7 31 12.5 N 9 15 5 8 1007.2 1007.1 0.0
06/04:30pm 36.2 36.8 16.9 32 12.4 N 9 17 5 9 1006.9 1006.7 0.0
06/04:00pm 36.1 36.2 17.4 33 12.1 NNW 13 19 7 10 1007.4 1007.3 0.0
06/03:30pm 36.7 37.6 18.5 34 12.0 NNE 11 22 6 12 1007.7 1007.6 0.0
06/03:00pm 35.6 35.1 17.9 35 11.5 NNW 17 26 9 14 1008.4 1008.3 0.0
06/02:30pm 36.1 35.9 18.4 35 11.6 NNW 17 22 9 12 1009.0 1008.9 0.0
06/02:00pm 35.7 34.6 17.7 34 11.7 NW 20 35 11 19 1009.4 1009.3 0.0
06/01:30pm 35.0 32.8 16.9 34 11.6 NW 24 33 13 18 1010.2 1010.1 0.0
06/01:00pm 33.9 32.4 16.8 36 10.9 NNW 20 28 11 15 1010.7 1010.6 0.0
06/12:30pm 33.4 33.6 18.5 41 9.7 NW 15 22 8 12 1011.5 1011.4 0.0
06/12:00pm 32.8 33.9 18.9 43 9.1 NNW 11 17 6 9 1012.4 1012.3 0.0
06/11:30am 31.2 34.1 20.7 53 7.0 E 6 11 3 6 1013.2 1013.1 0.0
06/11:00am 29.6 32.4 20.9 59 5.8 N 7 13 4 7 1014.1 1014.0 0.0
06/10:30am 28.8 32.5 21.5 64 4.9 E 4 15 2 8 1014.8 1014.7 0.0
06/10:00am 27.4 30.4 21.2 69 4.1 ESE 7 11 4 6 1015.3 1015.2 0.0
06/09:30am 26.7 30.0 21.4 72 3.5 ESE 6 11 3 6 1015.7 1015.6 0.0
06/09:00am 26.5 29.0 21.7 75 3.2 E 11 15 6 8 1016.0 1015.9 1.2
06/08:30am 25.6 28.0 21.5 78 2.7 ENE 11 17 6 9 1016.4 1016.3 1.2
06/08:00am 24.7 26.4 21.7 83 2.0 E 15 19 8 10 1017.0 1016.9 1.2
06/07:30am 24.1 25.4 21.7 86 1.6 ENE 17 22 9 12 1016.7 1016.6 1.2
06/07:00am 23.8 24.8 21.8 88 1.3 NE 19 26 10 14 1016.9 1016.8 1.2
06/06:30am 23.5 23.9 21.7 90 1.2 ENE 22 32 12 17 1016.5 1016.4 1.2
06/06:00am 23.5 23.5 21.7 90 1.2 E 24 32 13 17 1016.4 1016.3 1.2
06/05:50am 23.5 24.2 21.5 88 1.3 ENE 20 28 11 15 1016.4 1016.3 1.2
06/05:30am 23.6 24.5 21.6 88 1.3 E 19 26 10 14 1016.1 1016.0 1.2
06/05:00am 23.5 25.6 21.7 90 1.2 E 13 17 7 9 1015.5 1015.4 1.2
06/04:30am 23.4 26.1 21.4 88 1.3 SE 9 11 5 6 1014.9 1014.8 1.2
06/04:00am 23.6 26.0 21.6 88 1.3 E 11 13 6 7 1014.3 1014.2 1.2
06/03:30am 24.3 27.2 21.1 82 2.1 SSE 7 11 4 6 1014.1 1014.0 0.0
06/03:00am 24.2 25.9 21.0 82 2.1 ESE 13 17 7 9 1013.4 1013.3 0.0
06/02:30am 23.8 26.0 21.2 85 1.7 SSE 11 13 6 7 1012.7 1012.6 0.0
06/02:00am 24.0 26.2 21.1 84 1.9 S 11 13 6 7 1012.5 1012.4 0.0
06/01:30am 23.9 25.8 21.3 85 1.7 S 13 15 7 8 1012.5 1012.4 0.0
06/01:00am 24.0 25.2 21.4 85 1.7 SSE 17 19 9 10 1012.4 1012.3 0.0
06/12:30am 24.7 27.6 21.1 80 2.4 E 7 9 4 5 1011.9 1011.8 0.0
06/12:00am 24.9 26.2 20.8 78 2.7 ENE 15 17 8 9 1011.7 1011.6 0.0
 
Date/Time
EST
Temp
°C
App
Temp
°C
Dew
Point
°C
Rel
Hum
%
Delta-T
°C
Wind Press
QNH
hPa
Press
MSL
hPa
Rain since
9am
mm
Dir  Spd
km/h
Gust
km/h
Spd
kts
Gust
kts
05/11:30pm 25.0 26.7 20.9 78 2.7 ESE 13 17 7 9 1011.9 1011.8 0.0
05/11:00pm 24.9 27.0 20.9 78 2.6 E 11 15 6 8 1011.5 1011.4 0.0
05/10:30pm 25.0 27.5 21.1 79 2.6 ESE 9 13 5 7 1011.2 1011.1 0.0
05/10:00pm 25.1 27.7 21.2 79 2.6 SE 9 11 5 6 1011.3 1011.2 0.0
05/09:30pm 25.2 27.4 21.1 78 2.7 SE 11 13 6 7 1011.4 1011.3 0.0
05/09:00pm 25.1 27.3 21.2 79 2.6 SE 11 17 6 9 1011.3 1011.2 0.0
05/08:30pm 25.9 27.7 21.1 75 3.2 ESE 13 19 7 10 1011.1 1011.0 0.0
05/08:00pm 26.1 27.5 21.1 74 3.3 ESE 15 20 8 11 1010.6 1010.5 0.0
05/07:30pm 26.6 27.7 21.2 72 3.6 ESE 17 22 9 12 1010.2 1010.1 0.0
05/07:00pm 27.0 27.8 21.3 71 3.8 E 19 24 10 13 1009.8 1009.7 0.0
05/06:30pm 27.9 28.5 21.1 66 4.5 E 19 28 10 15 1009.8 1009.7 0.0
05/06:00pm 28.5 27.8 21.0 64 5.0 ENE 26 35 14 19 1009.3 1009.2 0.0
05/05:30pm 29.6 28.7 21.4 61 5.5 ENE 28 39 15 21 1009.1 1009.0 0.0
05/05:00pm 30.8 29.2 21.6 58 6.2 ENE 32 41 17 22 1008.9 1008.8 0.0
05/04:30pm 30.9 29.2 21.4 57 6.4 ENE 32 39 17 21 1008.8 1008.7 0.0
05/04:00pm 31.6 29.8 21.2 54 7.0 ENE 32 39 17 21 1008.8 1008.7 0.0
05/03:30pm 31.9 30.9 21.9 55 6.8 ENE 30 39 16 21 1009.1 1009.0 0.0
05/03:00pm 32.1 32.3 22.0 55 6.9 ENE 24 33 13 18 1009.5 1009.4 0.0
05/02:30pm 31.9 31.0 21.5 54 7.0 ENE 28 33 15 18 1009.8 1009.7 0.0
05/02:00pm 33.3 32.9 21.7 50 7.9 ENE 26 33 14 18 1010.1 1010.0 0.0
05/01:30pm 33.8 33.5 21.9 49 8.1 NE 26 33 14 18 1010.4 1010.3 0.0
05/01:00pm 35.9 35.1 17.1 32 12.1 NW 17 26 9 14 1010.6 1010.5 0.0
05/12:30pm 35.5 35.7 17.6 34 11.6 NW 13 19 7 10 1011.3 1011.2 0.0
05/12:00pm 34.9 35.2 18.0 36 11.0 NW 13 20 7 11 1011.8 1011.7 0.0
05/11:30am 34.0 33.8 17.5 37 10.6 NNW 15 22 8 12 1012.2 1012.1 0.0
05/11:00am 33.0 32.8 17.6 40 9.9 NNW 15 24 8 13 1012.8 1012.7 0.0
05/10:30am 32.0 31.5 17.0 40 9.5 NW 15 30 8 16 1013.4 1013.3 0.0
05/10:00am 30.9 30.7 16.8 42 8.9 NNW 13 22 7 12 1013.8 1013.7 0.0
05/09:30am 29.9 30.9 17.8 48 7.7 NNW 9 20 5 11 1014.1 1014.0 0.0
05/09:00am 29.0 29.3 17.8 50 7.1 WNW 13 19 7 10 1014.4 1014.3 0.0
05/08:30am 29.0 29.3 18.8 54 6.6 NNW 15 22 8 12 1014.7 1014.6 0.0

Latest Capital City Observations: Canberra | Sydney | Melbourne | Brisbane | Adelaide | Perth | Hobart | Darwin

Other Formats:

Comma delimited format used in spreadsheet applications
http://www.bom.gov.au/fwo/IDQ60901/IDQ60901.94568.axf

JavaScript Object Notation format (JSON) in row-major order
http://www.bom.gov.au/fwo/IDQ60901/IDQ60901.94568.json